Los Cabos International Airport
MMSD : rendu visible

Aérodrome :











RETROUVEZ-NOUS SUR...

 
LOGIN :

S'inscrire | Disclaimer

   EN    FR    IT 

 









Légende :    VFR   VFR Marginal   IFR   IFR Intensif   IFR Très Intensif
Visi : 
Plafond : 
>= 8 km
>= 3000ft
5 à 8 km
1000 à 3000 ft
1500m à 5 km
500 à 1000 ft
800 à 1500m
200 à 500 ft
< 800m
< 200 ft
Symboles :   Orages  Brouillard  Fortes neiges  Fortes précipitations  Vent > 20 kt






- Altitude de l'aérodrome : 374 ft
- Code IATA : SJD


MMSD - Los Cabos International

DERNIER METAR :
  • 301354Z 00000KT 12SM SKC 24/12 A2988

METARs EXPIRÉS :
  • 301316Z RTD 00000KT 12SM SKC 23/12 A2987 RMK RTS

TAF TAF MMSD
Valide du 30 à 06h jusqu'au 31 à 06h UTC


300441Z 3006/3106 13005KT P6SM SKC
FM301800 13012KT P6SM SKC
FM310300 13005KT P6SM SKC
FIR MMFR / Amérique du Nord



MET'MAP, la Météo Aéronautique d'un coup d'oeil ! - Copyright ORBIFLY Décembre 2007 - Disclaimer

ORBIFLY MET'MAP TEAM :

Programmation & Développement : Alexandra Zaïnal
Sur une idée originale de : Baudouin d'Aumeries
Assistance à la programmation : Marc-Olivier Méhu
Soutien technique & logistique : Manuel Goepfert

Contact : metmap@orbifly.com




SOURCES & CREDITS :

   NOAA       Earth
Advisory